Izmail, Ukraine
Current Conditions -  °F | °C
As of 4:30 AM on Wednesday 22 Oct 2014 (Local Time) from LRCK Reporting Station
Haze Haze  
Wind Chill: 57°   Ceiling: 100
Heat Index: 57°   Visibility: 0.93mi
Dew Point: 57°   Wind: 12mph
Humidity: 100%   Direction: 30°NNE
Pressure: 29.71"   Gusts: NA
Location:  45.35°N, 28.85°E
Report Text: LRCK 220130Z 03010KT 1500 BR BKN001 14/14 Q1006 NOSIG
Loading
Personal Weather Stations






























Interactive Weather Map
Tropical Storm Tracking
New forecast layout! Learn more

10-Day Weather Forecast

Advertisements
Track Severe Weather on mobile